Terminal Aerodrome Forecast
Issued by NWS Melbourne, FL

Home | Current Version | Previous Version | Text Only | Print | Product List | Glossary On
Versions: 1 2 3 4 5 6 7 8 9 10 11 12 13 14 15 16 17 18 19
848
FTUS42 KMLB 281727
TAFVRB
TAF
KVRB 281727Z 2818/2918 09012G18KT P6SM VCSH SCT025 SCT050
      TEMPO 2818/2820 4SM SHRA BKN025
     FM290000 07007KT P6SM VCSH SCT025 SCT035
     FM291400 10009KT P6SM VCSH SCT025 BKN050 BKN250
      TEMPO 2915/2918 3SM SHRA BKN025=

USA.gov is the U.S. government's official web portal to all federal, state and local government web resources and services.